Time;durP1;ratioP1;P1;durP2;ratioP2;P2;SDS_P1;SDS_P2;PMS_P1;PMS_P2;Temp;Humidity;BMP_temperature;BMP_pressure;BME280_temperature;BME280_humidity;BME280_pressure;Samples;Min_cycle;Max_cycle;Signal;HPM_P1;HPM_P2
2023/04/13 00:00:35;;;;;;;0.93;0.43;;;;;;;6.48;71.95;97793.53;5004601;28;20041;-49
2023/04/13 00:03:03;;;;;;;1.95;0.70;;;;;;;6.43;72.71;97797.03;5002145;28;20080;-51
2023/04/13 00:05:30;;;;;;;0.70;0.70;;;;;;;6.47;71.75;97786.69;4999043;28;20042;-50
2023/04/13 00:08:01;;;;;;;0.20;0.10;;;;;;;6.37;72.76;97796.31;5004083;28;20048;-53
2023/04/13 00:10:35;;;;;;;0.65;0.45;;;;;;;6.41;73.78;97792.81;5000253;28;20058;-50
2023/04/13 00:13:03;;;;;;;0.93;0.40;;;;;;;6.43;72.86;97784.16;4998849;28;20057;-49
2023/04/13 00:15:33;;;;;;;1.08;0.45;;;;;;;6.42;72.31;97787.63;5016203;28;20076;-53
2023/04/13 00:18:00;;;;;;;0.65;0.40;;;;;;;6.45;72.56;97788.47;4997582;28;20053;-55
2023/04/13 00:20:27;;;;;;;1.95;0.73;;;;;;;6.40;72.33;97786.84;4980558;28;20122;-53
2023/04/13 00:22:55;;;;;;;1.88;1.05;;;;;;;6.33;71.60;97795.56;4975598;28;20047;-49
2023/04/13 00:25:21;;;;;;;1.15;0.60;;;;;;;6.33;72.66;97816.13;4973012;28;20057;-51
2023/04/13 00:27:51;;;;;;;0.57;0.52;;;;;;;6.36;72.70;97805.78;4981270;28;20557;-50
2023/04/13 00:30:19;;;;;;;;;;;;;;;6.25;72.79;97810.31;4980449;28;20058;-53
2023/04/13 00:32:46;;;;;;;1.45;0.52;;;;;;;6.31;72.03;97823.00;4979808;28;19929;-53
2023/04/13 00:35:17;;;;;;;0.75;0.50;;;;;;;6.33;70.96;97836.69;5010326;28;20047;-50
2023/04/13 00:37:46;;;;;;;0.73;0.30;;;;;;;6.25;72.01;97833.44;4998159;28;20058;-49
2023/04/13 00:40:14;;;;;;;1.60;0.50;;;;;;;6.26;71.74;97832.56;4994355;28;20086;-51
2023/04/13 00:42:44;;;;;;;1.25;1.05;;;;;;;6.28;71.08;97846.22;4978342;28;20451;-49
2023/04/13 00:45:12;;;;;;;0.57;0.45;;;;;;;6.28;71.81;97849.63;4977758;28;20078;-49
2023/04/13 00:47:40;;;;;;;1.52;0.47;;;;;;;6.29;72.12;97840.22;4970275;28;20058;-49
2023/04/13 00:50:08;;;;;;;0.93;0.63;;;;;;;6.32;71.64;97858.16;4972599;28;20039;-52
2023/04/13 00:52:37;;;;;;;0.70;0.30;;;;;;;6.28;71.55;97843.63;4985053;28;20046;-49
2023/04/13 00:55:05;;;;;;;0.93;0.63;;;;;;;6.29;72.51;97851.31;4985989;28;20046;-51
2023/04/13 00:57:32;;;;;;;1.05;0.50;;;;;;;6.30;72.03;97853.03;4974477;28;20047;-51
2023/04/13 01:00:05;;;;;;;2.03;0.70;;;;;;;6.36;71.66;97856.34;4967472;28;20078;-51
2023/04/13 01:02:31;;;;;;;1.02;0.82;;;;;;;6.37;71.84;97856.31;4968283;28;20142;-54
2023/04/13 01:04:58;;;;;;;1.33;0.40;;;;;;;6.45;71.29;97875.88;4967007;28;20042;-50
2023/04/13 01:15:54;;;;;;;1.75;1.65;;;;;;;6.55;72.03;97887.66;5043554;27;20399;-52
2023/04/13 01:18:22;;;;;;;2.10;1.92;;;;;;;6.57;72.01;97898.78;5014982;28;20056;-56
2023/04/13 01:20:51;;;;;;;6.22;2.05;;;;;;;6.60;71.64;97896.13;5030500;28;20529;-56
2023/04/13 01:26:05;;;;;;;2.45;0.45;;;;;;;6.67;70.69;97905.44;4998105;28;20734;-48
2023/04/13 01:28:34;;;;;;;1.70;0.40;;;;;;;6.61;71.08;97913.25;4978035;28;20621;-52
2023/04/13 01:31:04;;;;;;;1.88;0.90;;;;;;;6.68;70.37;97904.53;4974309;28;20089;-50
2023/04/13 01:33:32;;;;;;;6.35;1.20;;;;;;;6.74;70.71;97913.00;4982794;28;20331;-50
2023/04/13 01:36:00;;;;;;;4.85;0.88;;;;;;;6.77;70.92;97928.38;4981278;28;20072;-53
2023/04/13 01:38:27;;;;;;;1.48;0.47;;;;;;;6.73;70.90;97921.59;4979091;28;20047;-49
2023/04/13 01:40:54;;;;;;;2.70;0.50;;;;;;;6.74;70.46;97925.84;4978725;28;20070;-56
2023/04/13 01:43:22;;;;;;;5.70;1.13;;;;;;;6.71;69.36;97928.50;4982194;28;20050;-53
2023/04/13 01:46:03;;;;;;;4.40;1.13;;;;;;;6.75;69.09;97933.53;4984042;28;20054;-48
2023/04/13 01:48:37;;;;;;;6.82;1.23;;;;;;;6.67;69.94;97946.59;4977825;28;20054;-52
2023/04/13 01:51:15;;;;;;;2.47;1.15;;;;;;;6.72;70.19;97955.94;4975403;28;20524;-50
2023/04/13 01:54:19;;;;;;;4.10;1.00;;;;;;;6.72;69.73;97961.06;4980192;28;20478;-54
2023/04/13 01:56:47;;;;;;;3.72;0.88;;;;;;;6.76;68.71;97962.72;4982414;28;20043;-54
2023/04/13 01:59:15;;;;;;;6.20;1.17;;;;;;;6.75;70.12;97966.16;4971078;28;20062;-54
2023/04/13 02:01:42;;;;;;;2.13;1.00;;;;;;;6.76;70.34;97973.00;4981539;28;20054;-52
2023/04/13 02:04:09;;;;;;;2.70;0.38;;;;;;;6.73;69.82;97962.75;4978944;28;20498;-54
2023/04/13 02:06:36;;;;;;;4.28;1.00;;;;;;;6.73;70.11;97962.75;5012476;28;20652;-48
2023/04/13 02:09:05;;;;;;;4.07;0.73;;;;;;;6.72;69.45;97967.06;4978101;28;20410;-51
2023/04/13 02:11:33;;;;;;;2.90;2.13;;;;;;;6.68;69.28;97971.44;4976171;28;20178;-50
2023/04/13 02:14:01;;;;;;;3.50;1.17;;;;;;;6.64;68.92;97974.09;4979788;28;20082;-52
2023/04/13 02:16:28;;;;;;;2.58;0.75;;;;;;;6.56;69.24;97976.81;4979402;28;20129;-56
2023/04/13 02:18:57;;;;;;;2.88;1.00;;;;;;;6.58;69.76;97984.50;4979185;28;20125;-53
2023/04/13 02:21:24;;;;;;;5.65;1.17;;;;;;;6.59;68.69;97989.63;4978698;28;20121;-53
2023/04/13 02:23:51;;;;;;;5.47;1.58;;;;;;;6.59;68.66;97994.78;4978306;28;20062;-54
2023/04/13 02:26:19;;;;;;;4.28;1.05;;;;;;;6.51;68.59;98005.19;4979903;28;20727;-52
2023/04/13 02:28:48;;;;;;;3.33;0.38;;;;;;;6.59;68.01;98017.06;4980787;28;20046;-52
2023/04/13 02:31:15;;;;;;;7.47;0.65;;;;;;;6.58;68.08;98021.34;4979274;28;20053;-48
2023/04/13 02:33:43;;;;;;;5.68;1.10;;;;;;;6.60;68.78;98022.19;4981718;28;20085;-51
2023/04/13 02:36:11;;;;;;;6.22;1.00;;;;;;;6.60;68.74;98017.03;4957568;28;20193;-51
2023/04/13 02:38:38;;;;;;;5.13;0.95;;;;;;;6.55;67.85;98026.53;4953128;28;20051;-53
2023/04/13 02:41:05;;;;;;;4.05;0.63;;;;;;;6.59;68.06;98035.94;4948847;28;20054;-50
2023/04/13 02:43:33;;;;;;;6.43;0.60;;;;;;;6.56;68.21;98043.69;4947546;28;20644;-50
2023/04/13 02:46:00;;;;;;;5.88;0.52;;;;;;;6.52;68.67;98047.22;4949577;28;20059;-51
2023/04/13 02:48:27;;;;;;;4.85;0.88;;;;;;;6.50;67.86;98046.38;4946927;28;20046;-54
2023/04/13 02:50:53;;;;;;;4.18;1.17;;;;;;;6.47;68.63;98049.00;4951381;28;20177;-50
2023/04/13 02:53:20;;;;;;;8.55;1.00;;;;;;;6.47;68.01;98064.44;4946803;28;20140;-58
2023/04/13 02:55:49;;;;;;;2.97;1.15;;;;;;;6.50;68.93;98074.66;4946695;28;20054;-52
2023/04/13 02:58:16;;;;;;;2.15;0.75;;;;;;;6.51;67.91;98076.34;4947513;28;20078;-53
2023/04/13 03:00:43;;;;;;;4.13;0.35;;;;;;;6.53;67.75;98074.63;4947336;28;20138;-55
2023/04/13 03:03:10;;;;;;;1.58;1.30;;;;;;;6.45;67.60;98076.47;4946757;28;20051;-52
2023/04/13 03:05:37;;;;;;;1.23;1.13;;;;;;;6.53;67.67;98082.34;4948405;28;20077;-55
2023/04/13 03:08:05;;;;;;;1.73;0.80;;;;;;;6.56;67.29;98090.81;4951305;28;20057;-51
2023/04/13 03:10:31;;;;;;;4.60;0.68;;;;;;;6.61;67.35;98088.19;4945106;28;20288;-54
2023/04/13 03:12:58;;;;;;;1.48;0.95;;;;;;;6.54;68.25;98087.44;4947940;28;20051;-55
2023/04/13 03:15:25;;;;;;;4.50;0.55;;;;;;;6.63;67.64;98095.88;4947241;28;20059;-55
2023/04/13 03:17:52;;;;;;;7.70;1.35;;;;;;;6.61;67.86;98090.75;4951621;28;20502;-50
2023/04/13 03:20:22;;;;;;;4.90;0.63;;;;;;;6.67;67.21;98098.38;4951688;28;20849;-50
2023/04/13 03:22:50;;;;;;;4.60;1.73;;;;;;;6.65;66.13;98088.97;4946621;28;20145;-53
2023/04/13 03:25:17;;;;;;;3.10;1.25;;;;;;;6.69;67.43;98100.91;4944707;28;20271;-51
2023/04/13 03:27:43;;;;;;;2.03;0.45;;;;;;;6.69;65.69;98100.91;4944889;28;20149;-54
2023/04/13 03:30:10;;;;;;;2.22;1.13;;;;;;;6.72;66.39;98105.16;4947861;28;20128;-52
2023/04/13 03:32:37;;;;;;;4.10;0.80;;;;;;;6.72;65.78;98107.72;4944875;28;20686;-47
2023/04/13 03:35:05;;;;;;;3.63;0.98;;;;;;;6.75;66.78;98110.25;4944992;28;20125;-50
2023/04/13 03:37:39;;;;;;;4.50;1.10;;;;;;;6.69;66.27;98111.22;4944981;28;20046;-51
2023/04/13 03:40:09;;;;;;;5.57;0.93;;;;;;;6.72;65.67;98107.72;4945231;28;20050;-53
2023/04/13 03:42:36;;;;;;;1.05;0.65;;;;;;;6.65;65.73;98120.69;4945804;28;20138;-50
2023/04/13 03:45:03;;;;;;;0.68;0.28;;;;;;;6.67;65.20;98121.53;4948673;28;20062;-56
2023/04/13 03:47:30;;;;;;;2.58;0.70;;;;;;;6.64;64.60;98124.16;4946282;28;20057;-52
2023/04/13 03:49:57;;;;;;;0.95;0.60;;;;;;;6.69;64.74;98131.78;4948162;28;20453;-55
2023/04/13 03:52:24;;;;;;;4.70;0.98;;;;;;;6.67;65.56;98131.81;4942078;28;21501;-53
2023/04/13 03:54:51;;;;;;;2.90;2.15;;;;;;;6.65;65.44;98130.13;4943021;28;20134;-50
2023/04/13 03:57:20;;;;;;;2.22;1.33;;;;;;;6.59;64.80;98138.81;4949286;28;20097;-52
2023/04/13 03:59:47;;;;;;;7.78;1.00;;;;;;;6.57;64.82;98145.72;4952554;28;20149;-53
2023/04/13 04:02:13;;;;;;;4.00;1.33;;;;;;;6.50;64.24;98146.69;4946904;28;20063;-52
2023/04/13 04:04:40;;;;;;;3.83;0.52;;;;;;;6.46;65.42;98147.59;4947116;28;20628;-50
2023/04/13 04:07:07;;;;;;;1.13;0.40;;;;;;;6.46;64.04;98145.03;4944522;28;20560;-50
2023/04/13 04:09:34;;;;;;;2.20;0.93;;;;;;;6.38;64.75;98153.72;4946415;28;20087;-50
2023/04/13 04:12:01;;;;;;;2.20;0.47;;;;;;;6.38;64.90;98152.91;4947364;28;20181;-49
2023/04/13 04:14:27;;;;;;;2.45;0.60;;;;;;;6.34;64.22;98164.06;4947036;28;20189;-53
2023/04/13 04:16:54;;;;;;;3.20;1.00;;;;;;;6.29;64.41;98166.75;4947158;28;20394;-49
2023/04/13 04:19:20;;;;;;;1.10;0.38;;;;;;;6.22;65.50;98162.56;4945426;28;20095;-52
2023/04/13 04:21:48;;;;;;;6.45;1.45;;;;;;;6.21;65.21;98166.84;4944291;28;20077;-51
2023/04/13 04:24:21;;;;;;;6.00;0.65;;;;;;;6.17;65.36;98168.63;4942590;28;20051;-54
2023/04/13 04:26:48;;;;;;;1.48;0.80;;;;;;;6.12;65.39;98170.38;4948670;28;20073;-51
2023/04/13 04:29:16;;;;;;;4.90;0.98;;;;;;;6.09;65.01;98170.47;4939413;28;20516;-48
2023/04/13 04:31:43;;;;;;;8.00;0.93;;;;;;;6.06;65.66;98169.63;4947706;28;20051;-53
2023/04/13 04:34:10;;;;;;;4.57;1.17;;;;;;;5.98;66.42;98177.44;4944925;28;20063;-50
2023/04/13 04:36:40;;;;;;;1.27;0.52;;;;;;;5.99;66.05;98179.13;4944634;28;20050;-50
2023/04/13 04:39:08;;;;;;;2.70;0.63;;;;;;;5.94;65.81;98188.63;4948477;28;20058;-54
2023/04/13 04:41:36;;;;;;;5.82;0.68;;;;;;;5.95;65.73;98195.47;4947116;28;20137;-50
2023/04/13 04:44:06;;;;;;;4.57;0.68;;;;;;;5.83;65.44;98192.19;4957281;28;20070;-52
2023/04/13 04:46:33;;;;;;;1.05;0.93;;;;;;;5.83;65.32;98196.47;4943839;28;20066;-53
2023/04/13 04:49:00;;;;;;;1.98;0.85;;;;;;;5.82;66.42;98205.91;4946583;28;20134;-50
2023/04/13 04:51:27;;;;;;;7.60;1.08;;;;;;;5.82;65.89;98205.91;4945900;28;20058;-51
2023/04/13 04:53:56;;;;;;;2.35;0.43;;;;;;;5.78;65.60;98211.97;4944443;28;20062;-52
2023/04/13 04:56:24;;;;;;;4.20;0.68;;;;;;;5.73;66.16;98216.28;4946490;28;20055;-51
2023/04/13 04:58:50;;;;;;;1.58;0.50;;;;;;;5.71;66.45;98231.72;4945763;28;20403;-52
2023/04/13 05:01:21;;;;;;;1.13;0.77;;;;;;;5.63;66.83;98234.41;4946560;28;20059;-51
2023/04/13 05:03:48;;;;;;;1.52;0.80;;;;;;;5.64;65.86;98233.53;4946304;28;20224;-50
2023/04/13 05:06:14;;;;;;;1.83;0.95;;;;;;;5.62;66.30;98234.41;4945715;28;21074;-49
2023/04/13 05:08:43;;;;;;;2.22;0.88;;;;;;;5.63;66.35;98239.53;4946457;28;20426;-49
2023/04/13 05:11:10;;;;;;;3.65;0.90;;;;;;;5.59;66.41;98240.44;4942267;28;20047;-55
2023/04/13 05:13:36;;;;;;;2.97;0.60;;;;;;;5.56;66.20;98240.47;4944453;28;20086;-53
2023/04/13 05:16:04;;;;;;;2.03;0.98;;;;;;;5.54;66.58;98242.19;4944395;28;20169;-51
2023/04/13 05:18:32;;;;;;;1.17;0.45;;;;;;;5.45;66.73;98242.31;4945283;28;20141;-52
2023/04/13 05:20:58;;;;;;;3.35;0.65;;;;;;;5.54;67.32;98247.34;4942767;28;21076;-48
2023/04/13 05:23:26;;;;;;;1.80;0.32;;;;;;;5.50;67.73;98235.41;4948825;28;20145;-51
2023/04/13 05:25:52;;;;;;;2.83;1.23;;;;;;;5.46;67.45;98252.56;4943991;28;20059;-52
2023/04/13 05:28:20;;;;;;;1.40;0.80;;;;;;;5.49;67.25;98249.97;4944000;28;20495;-52
2023/04/13 05:30:47;;;;;;;4.50;0.93;;;;;;;5.52;67.54;98264.50;4947508;28;20074;-54
2023/04/13 05:33:15;;;;;;;7.60;0.95;;;;;;;5.50;68.24;98266.22;4944557;28;20126;-46
2023/04/13 05:35:42;;;;;;;1.73;0.45;;;;;;;5.49;68.32;98275.66;4944123;28;20051;-51
2023/04/13 05:38:09;;;;;;;2.08;0.40;;;;;;;5.54;68.04;98273.00;4944483;28;20061;-52
2023/04/13 05:40:36;;;;;;;4.45;0.73;;;;;;;5.54;68.34;98273.00;4944749;28;20066;-48
2023/04/13 05:43:02;;;;;;;6.57;1.20;;;;;;;5.58;67.80;98277.28;4944414;28;20206;-51
2023/04/13 05:45:29;;;;;;;4.80;0.90;;;;;;;5.54;68.56;98278.16;4949222;28;20169;-50
2023/04/13 05:47:55;;;;;;;4.45;0.70;;;;;;;5.58;67.64;98278.97;4944422;28;20129;-49
2023/04/13 05:50:22;;;;;;;5.72;0.63;;;;;;;5.62;68.53;98281.50;4944403;28;20063;-52
2023/04/13 05:52:49;;;;;;;3.30;0.93;;;;;;;5.61;67.73;98284.09;4942042;28;20177;-50
2023/04/13 05:55:18;;;;;;;1.90;0.77;;;;;;;5.63;68.40;98284.91;4947204;28;20046;-53
2023/04/13 05:57:45;;;;;;;3.45;1.13;;;;;;;5.67;67.95;98294.28;4944109;28;20146;-49
2023/04/13 06:00:12;;;;;;;3.55;0.93;;;;;;;5.69;67.42;98294.28;4948275;28;20137;-50
2023/04/13 06:02:40;;;;;;;3.63;1.00;;;;;;;5.66;67.96;98293.44;4955379;28;20051;-52
2023/04/13 06:05:08;;;;;;;2.15;0.43;;;;;;;5.66;68.42;98293.44;4959851;28;20050;-49
2023/04/13 06:07:35;;;;;;;7.45;0.43;;;;;;;5.71;68.19;98300.25;4961234;28;20102;-48
2023/04/13 06:10:02;;;;;;;4.80;0.82;;;;;;;5.70;67.58;98293.38;4965002;28;20047;-50
2023/04/13 06:12:29;;;;;;;4.40;0.80;;;;;;;5.65;68.12;98307.13;4964498;28;20043;-49
2023/04/13 06:14:56;;;;;;;4.97;1.08;;;;;;;5.62;68.55;98302.06;4970448;28;20050;-54
2023/04/13 06:17:23;;;;;;;1.48;0.50;;;;;;;5.68;68.38;98301.16;4964273;28;20050;-51
2023/04/13 06:19:49;;;;;;;3.47;0.68;;;;;;;5.73;68.83;98303.63;4965517;28;20074;-52
2023/04/13 06:22:16;;;;;;;4.13;1.90;;;;;;;5.74;68.52;98310.50;4963500;28;20129;-50
2023/04/13 06:24:44;;;;;;;2.20;0.95;;;;;;;5.74;69.01;98313.91;4963845;28;20110;-49
2023/04/13 06:27:11;;;;;;;5.28;1.80;;;;;;;5.73;68.90;98301.06;4965872;28;20109;-51
2023/04/13 06:29:39;;;;;;;3.67;0.80;;;;;;;5.82;68.32;98308.69;4963707;28;20109;-49
2023/04/13 06:32:06;;;;;;;3.88;1.33;;;;;;;5.86;67.31;98309.50;4965639;28;21230;-55
2023/04/13 06:34:33;;;;;;;15.55;3.95;;;;;;;5.90;67.84;98301.75;4960140;28;20099;-50
2023/04/13 06:37:00;;;;;;;11.30;4.72;;;;;;;5.91;67.68;98318.00;4966902;28;20059;-52
2023/04/13 06:39:27;;;;;;;5.68;1.58;;;;;;;5.98;67.83;98314.47;4964767;28;20572;-54
2023/04/13 06:41:55;;;;;;;3.28;1.95;;;;;;;5.97;68.71;98317.06;4965165;28;20537;-50
2023/04/13 06:44:22;;;;;;;1.63;0.68;;;;;;;6.04;68.70;98317.03;4965948;28;20046;-50
2023/04/13 06:46:49;;;;;;;3.78;0.82;;;;;;;6.06;68.42;98322.16;4963754;28;20133;-49
2023/04/13 06:49:15;;;;;;;5.70;1.65;;;;;;;6.10;68.72;98328.94;4962734;28;20678;-50
2023/04/13 06:51:42;;;;;;;2.83;1.00;;;;;;;6.17;67.79;98333.16;4964540;28;20176;-49
2023/04/13 06:54:09;;;;;;;3.60;1.48;;;;;;;6.42;67.97;98335.38;4963336;28;20125;-52
2023/04/13 06:56:35;;;;;;;4.20;1.70;;;;;;;7.09;67.50;98341.28;4966184;28;20038;-50
2023/04/13 06:59:02;;;;;;;2.65;1.52;;;;;;;7.73;67.31;98337.63;4960481;28;20467;-52
2023/04/13 07:01:29;;;;;;;3.20;0.82;;;;;;;8.25;65.18;98342.66;4953811;28;20082;-47
2023/04/13 07:03:57;;;;;;;3.78;1.58;;;;;;;8.71;64.50;98345.13;4949854;28;20055;-51
2023/04/13 07:06:25;;;;;;;3.97;0.90;;;;;;;9.15;63.47;98342.38;4966406;28;20070;-49
2023/04/13 07:08:52;;;;;;;3.90;1.30;;;;;;;9.55;62.74;98350.88;4962590;28;20050;-51
2023/04/13 07:11:19;;;;;;;5.82;1.10;;;;;;;9.97;61.25;98357.50;4963726;28;20050;-51
2023/04/13 07:13:46;;;;;;;7.07;0.90;;;;;;;10.21;59.96;98360.31;4960178;28;20553;-50
2023/04/13 07:16:12;;;;;;;7.35;1.13;;;;;;;10.60;59.34;98361.81;4963918;28;20097;-53
2023/04/13 07:18:39;;;;;;;7.18;1.88;;;;;;;10.87;58.32;98363.59;4962872;28;20066;-54
2023/04/13 07:21:06;;;;;;;11.55;1.67;;;;;;;11.22;58.06;98369.44;4963900;28;20054;-54
2023/04/13 07:23:33;;;;;;;7.97;2.35;;;;;;;11.64;56.95;98359.41;4964179;28;20099;-55
2023/04/13 07:26:00;;;;;;;5.45;1.38;;;;;;;11.78;56.21;98367.56;4963572;28;20062;-56
2023/04/13 07:28:27;;;;;;;5.05;2.03;;;;;;;12.00;54.74;98364.22;4958900;28;20086;-55
2023/04/13 07:30:53;;;;;;;4.50;1.20;;;;;;;12.28;54.10;98370.16;4956426;28;20380;-55
2023/04/13 07:33:20;;;;;;;4.82;1.27;;;;;;;12.46;52.91;98373.81;4962333;28;20142;-52
2023/04/13 07:35:49;;;;;;;12.73;3.70;;;;;;;12.72;53.84;98385.84;4965398;28;20453;-52
2023/04/13 07:38:15;;;;;;;15.15;4.15;;;;;;;12.93;52.55;98392.84;4966953;28;20078;-55
2023/04/13 07:40:42;;;;;;;7.03;2.28;;;;;;;13.14;53.17;98385.13;4965219;28;20046;-57
2023/04/13 07:43:08;;;;;;;8.38;2.60;;;;;;;13.54;52.37;98378.31;4969000;28;20085;-52
2023/04/13 07:45:35;;;;;;;9.32;2.92;;;;;;;13.82;51.93;98391.91;4965302;28;20043;-53
2023/04/13 07:48:02;;;;;;;10.00;2.53;;;;;;;13.86;50.79;98389.13;4964687;28;20050;-54
2023/04/13 07:50:28;;;;;;;6.75;2.30;;;;;;;14.06;50.50;98387.41;4966522;28;20053;-53
2023/04/13 07:52:55;;;;;;;7.72;2.45;;;;;;;14.33;50.61;98397.50;4963631;28;20063;-54
2023/04/13 07:55:22;;;;;;;4.45;2.08;;;;;;;14.49;49.94;98402.03;4958167;28;20073;-53
2023/04/13 07:57:48;;;;;;;4.35;0.90;;;;;;;14.55;48.78;98406.94;4967081;28;20668;-53
2023/04/13 08:00:17;;;;;;;4.57;2.20;;;;;;;14.40;47.74;98411.94;4966205;28;20707;-51
2023/04/13 08:02:43;;;;;;;6.18;1.67;;;;;;;14.55;47.83;98417.38;4965101;28;20137;-54
2023/04/13 08:05:10;;;;;;;4.07;1.50;;;;;;;14.62;47.66;98424.00;4969453;28;20141;-56
2023/04/13 08:07:37;;;;;;;3.60;1.73;;;;;;;14.81;47.76;98427.53;4966609;28;20043;-57
2023/04/13 08:10:05;;;;;;;7.78;1.80;;;;;;;15.01;47.28;98431.84;4967194;28;20109;-55
2023/04/13 08:12:32;;;;;;;8.60;1.08;;;;;;;15.21;47.15;98440.47;4961874;28;20569;-54
2023/04/13 08:14:58;;;;;;;4.38;1.83;;;;;;;15.19;46.56;98431.88;4970257;28;20084;-57
2023/04/13 08:17:25;;;;;;;4.93;1.85;;;;;;;15.32;46.59;98427.75;4964486;28;20486;-57
2023/04/13 08:19:52;;;;;;;5.70;0.88;;;;;;;15.16;45.18;98433.72;4965119;28;20563;-51
2023/04/13 08:22:21;;;;;;;3.50;0.93;;;;;;;15.44;45.65;98441.13;4965330;28;20058;-54
2023/04/13 08:24:48;;;;;;;3.65;1.40;;;;;;;15.59;45.20;98448.19;4962956;28;20759;-54
2023/04/13 08:27:14;;;;;;;4.90;1.58;;;;;;;15.62;45.02;98442.84;4963998;28;20137;-54
2023/04/13 08:29:41;;;;;;;7.93;1.27;;;;;;;15.87;45.65;98457.25;4962812;28;20517;-52
2023/04/13 08:32:07;;;;;;;11.45;4.38;;;;;;;16.02;43.81;98457.44;4968648;28;20054;-55
2023/04/13 08:34:34;;;;;;;15.23;3.78;;;;;;;16.25;45.22;98468.47;4960053;28;20070;-57
2023/04/13 08:37:00;;;;;;;13.75;3.35;;;;;;;16.09;43.50;98469.28;4963673;28;20101;-53
2023/04/13 08:39:27;;;;;;;16.13;4.32;;;;;;;16.17;44.69;98467.09;4964559;28;20081;-55
2023/04/13 08:41:54;;;;;;;10.63;3.72;;;;;;;16.32;44.30;98472.47;4962682;28;20102;-56
2023/04/13 08:44:20;;;;;;;4.10;1.10;;;;;;;16.42;43.46;98460.59;4958741;28;20054;-56
2023/04/13 08:46:47;;;;;;;2.67;1.15;;;;;;;16.49;43.82;98468.13;4957412;28;20077;-55
2023/04/13 08:49:17;;;;;;;2.97;0.80;;;;;;;16.38;42.61;98458.25;4958218;28;20055;-54
2023/04/13 08:51:46;;;;;;;3.72;1.63;;;;;;;16.60;43.73;98478.84;4961927;28;22119;-53
2023/04/13 08:54:14;;;;;;;4.75;0.90;;;;;;;16.73;42.63;98478.19;4964311;28;20058;-56
2023/04/13 08:56:45;;;;;;;2.95;1.00;;;;;;;16.81;42.55;98481.25;4960439;28;22269;-55
2023/04/13 08:59:14;;;;;;;7.22;1.73;;;;;;;16.99;42.74;98478.56;4962471;28;20413;-54
2023/04/13 09:01:44;;;;;;;6.47;2.83;;;;;;;17.17;41.62;98482.81;4959511;28;20063;-54
2023/04/13 09:04:16;;;;;;;3.65;1.17;;;;;;;17.14;41.17;98484.75;4958096;28;20055;-54
2023/04/13 09:06:49;;;;;;;2.70;1.20;;;;;;;17.19;40.36;98485.34;4959450;28;20047;-55
2023/04/13 09:09:17;;;;;;;4.55;1.23;;;;;;;17.20;41.71;98487.88;4960364;28;20055;-56
2023/04/13 09:11:45;;;;;;;3.85;1.52;;;;;;;17.19;40.78;98496.66;4963807;28;20051;-51
2023/04/13 09:14:19;;;;;;;3.88;1.08;;;;;;;17.19;41.31;98507.13;4959119;28;20054;-53
2023/04/13 09:16:46;;;;;;;4.30;1.20;;;;;;;17.12;40.63;98511.00;4961339;28;20078;-51
2023/04/13 09:19:13;;;;;;;7.50;1.10;;;;;;;16.88;41.63;98515.78;4962204;28;20062;-54
2023/04/13 09:21:41;;;;;;;7.22;1.95;;;;;;;16.52;40.67;98517.63;4959340;28;20054;-55
2023/04/13 09:24:09;;;;;;;3.78;1.42;;;;;;;16.38;41.97;98521.78;4958113;28;20490;-54
2023/04/13 09:29:19;;;;;;;8.73;4.60;;;;;;;15.91;42.69;98529.28;5079001;27;20125;-56
2023/04/13 09:31:46;;;;;;;6.35;3.42;;;;;;;15.86;43.28;98531.28;5008199;28;20069;-51
2023/04/13 09:34:24;;;;;;;6.68;3.30;;;;;;;15.59;42.47;98536.94;5005325;28;20038;-56
2023/04/13 09:36:51;;;;;;;5.95;4.47;;;;;;;15.50;41.88;98524.31;4993853;28;20085;-53
2023/04/13 09:39:28;;;;;;;4.53;1.95;;;;;;;15.40;42.98;98529.97;4996346;28;20562;-56
2023/04/13 09:41:55;;;;;;;4.90;3.80;;;;;;;15.17;42.74;98531.06;5013950;28;20073;-52
2023/04/13 09:44:24;;;;;;;7.50;3.13;;;;;;;15.24;42.83;98542.03;5014835;28;20577;-52
2023/04/13 09:46:59;;;;;;;6.13;2.90;;;;;;;15.56;43.00;98534.44;5012970;28;20073;-52
2023/04/13 09:49:42;;;;;;;3.75;2.35;;;;;;;15.84;41.92;98543.56;5000203;28;20497;-51
2023/04/13 09:52:24;;;;;;;4.63;2.47;;;;;;;15.87;43.21;98540.81;5001326;28;20049;-53
2023/04/13 09:54:52;;;;;;;2.58;1.65;;;;;;;15.94;42.54;98538.72;5011905;28;20095;-54
2023/04/13 09:57:28;;;;;;;3.45;2.30;;;;;;;16.13;42.54;98546.53;5016638;28;20137;-54
2023/04/13 09:59:56;;;;;;;3.10;2.42;;;;;;;16.26;42.02;98548.53;5014974;28;20057;-52
2023/04/13 10:02:24;;;;;;;4.32;2.45;;;;;;;16.10;41.19;98548.44;5010415;28;20157;-54
2023/04/13 10:04:52;;;;;;;4.85;2.60;;;;;;;15.78;41.57;98554.31;5013164;28;20053;-51
2023/04/13 10:07:20;;;;;;;5.25;1.42;;;;;;;15.67;42.17;98560.88;5003025;28;20588;-55
2023/04/13 10:09:49;;;;;;;5.70;3.22;;;;;;;15.58;41.22;98557.88;5001854;28;20054;-52
2023/04/13 10:12:16;;;;;;;6.35;2.55;;;;;;;15.44;41.47;98561.13;5016328;28;20050;-51
2023/04/13 10:14:47;;;;;;;7.38;2.03;;;;;;;15.28;41.37;98554.03;5014302;28;20092;-55
2023/04/13 10:19:52;;;;;;;3.28;1.02;;;;;;;14.95;41.87;98571.13;5022873;27;20412;-49
2023/04/13 10:22:21;;;;;;;2.75;1.15;;;;;;;14.85;41.90;98565.47;5005862;28;20615;-51
2023/04/13 10:24:51;;;;;;;2.85;1.05;;;;;;;14.75;42.37;98580.66;5004600;28;20056;-51
2023/04/13 10:27:20;;;;;;;3.60;0.85;;;;;;;14.75;41.49;98574.56;5006108;28;20368;-53
2023/04/13 10:29:48;;;;;;;1.30;0.50;;;;;;;14.78;42.75;98574.47;5000876;28;20740;-53
2023/04/13 10:32:21;;;;;;;4.05;1.35;;;;;;;14.69;42.08;98580.06;5003034;28;20056;-52
2023/04/13 10:34:47;;;;;;;5.53;1.95;;;;;;;14.50;41.54;98570.44;4996994;28;20418;-52
2023/04/13 10:37:18;;;;;;;1.33;0.70;;;;;;;14.61;42.32;98583.84;5011439;28;20074;-53
2023/04/13 10:39:45;;;;;;;4.30;1.05;;;;;;;14.88;42.51;98586.19;5024102;28;20137;-53
2023/04/13 10:42:12;;;;;;;3.78;1.40;;;;;;;14.65;40.36;98579.34;5021977;28;20136;-50
2023/04/13 10:44:52;;;;;;;5.10;1.25;;;;;;;14.54;40.70;98587.63;5023730;28;20472;-51
2023/04/13 10:47:20;;;;;;;2.60;1.02;;;;;;;14.74;41.83;98593.75;5021192;28;20050;-53
2023/04/13 10:49:49;;;;;;;4.95;0.85;;;;;;;14.74;42.24;98588.53;5014396;28;20173;-54
2023/04/13 10:52:16;;;;;;;3.90;0.85;;;;;;;14.77;42.13;98604.06;5036001;28;20048;-55
2023/04/13 10:54:43;;;;;;;6.22;1.30;;;;;;;14.80;41.69;98603.94;5026900;28;20397;-52
2023/04/13 10:57:13;;;;;;;2.92;1.15;;;;;;;14.75;41.75;98590.22;5017151;28;20085;-54
2023/04/13 10:59:43;;;;;;;2.95;0.90;;;;;;;14.76;42.64;98595.34;5029381;28;20057;-51
2023/04/13 11:02:15;;;;;;;1.85;0.47;;;;;;;14.58;41.96;98581.38;5022925;28;20273;-52
2023/04/13 11:04:44;;;;;;;2.47;0.55;;;;;;;14.68;42.50;98596.59;5022397;28;20042;-51
2023/04/13 11:07:13;;;;;;;1.52;0.98;;;;;;;14.63;42.27;98596.81;5019642;28;20080;-52
2023/04/13 11:09:42;;;;;;;5.00;1.20;;;;;;;14.43;41.55;98605.47;5022677;28;20764;-49
2023/04/13 11:12:11;;;;;;;10.80;2.60;;;;;;;14.58;42.83;98597.00;5029058;28;20049;-48
2023/04/13 11:14:38;;;;;;;4.18;1.58;;;;;;;14.71;42.81;98606.91;5023875;28;20046;-53
2023/04/13 11:17:07;;;;;;;11.15;2.17;;;;;;;14.62;42.10;98601.16;5020856;28;20077;-50
2023/04/13 11:19:48;;;;;;;3.00;0.88;;;;;;;14.62;41.45;98611.59;5021360;28;20781;-52
2023/04/13 11:22:17;;;;;;;2.65;0.90;;;;;;;14.82;41.18;98607.31;5018390;28;20129;-52
2023/04/13 11:24:46;;;;;;;2.70;0.73;;;;;;;15.02;42.53;98602.97;5023567;28;20192;-52
2023/04/13 11:27:22;;;;;;;2.92;0.80;;;;;;;14.94;39.91;98595.50;5017704;28;20072;-54
2023/04/13 11:29:57;;;;;;;5.43;1.30;;;;;;;15.09;41.88;98598.31;5016484;28;20061;-50
2023/04/13 11:32:25;;;;;;;4.72;1.65;;;;;;;15.23;41.16;98590.75;5005622;28;20406;-52
2023/04/13 11:34:51;;;;;;;4.55;0.80;;;;;;;15.19;40.24;98594.41;5008777;28;22019;-52
2023/04/13 11:37:21;;;;;;;2.85;0.73;;;;;;;15.36;41.12;98601.47;5005706;28;20058;-50
2023/04/13 11:39:49;;;;;;;3.55;0.82;;;;;;;15.46;40.92;98606.25;5001776;28;20049;-49
2023/04/13 11:42:15;;;;;;;2.95;1.20;;;;;;;15.36;39.48;98611.91;5009245;28;20073;-52
2023/04/13 11:44:44;;;;;;;1.75;0.50;;;;;;;15.31;40.65;98598.22;5008441;28;20069;-53
2023/04/13 11:47:14;;;;;;;4.03;0.90;;;;;;;15.47;40.86;98608.78;5003872;28;20504;-52
2023/04/13 11:49:46;;;;;;;4.78;1.10;;;;;;;15.52;40.09;98611.19;5018455;28;20053;-48
2023/04/13 11:52:14;;;;;;;1.67;0.32;;;;;;;15.59;39.99;98601.31;4999381;28;20085;-50
2023/04/13 11:54:43;;;;;;;3.38;1.00;;;;;;;15.59;40.46;98610.00;5001683;28;20069;-50
2023/04/13 11:57:11;;;;;;;1.98;0.63;;;;;;;15.55;40.22;98611.06;5009760;28;20081;-48
2023/04/13 11:59:37;;;;;;;3.97;0.73;;;;;;;15.54;39.90;98610.19;5013162;28;20038;-50